Time;durP1;ratioP1;P1;durP2;ratioP2;P2;SDS_P1;SDS_P2;PMS_P1;PMS_P2;Temp;Humidity;BMP_temperature;BMP_pressure;BME280_temperature;BME280_humidity;BME280_pressure;Samples;Min_cycle;Max_cycle;Signal;HPM_P1;HPM_P2
2021/09/10 00:00:29;;;;;;;;;;;;;;;15.24;57.86;98326.16;1591203;89;20256;-85
2021/09/10 00:02:56;;;;;;;;;;;;;;;15.23;57.86;98331.92;1603646;89;20259;-86
2021/09/10 00:05:22;;;;;;;;;;;;;;;15.24;57.87;98330.95;1598696;89;21051;-85
2021/09/10 00:07:48;;;;;;;;;;;;;;;15.23;57.86;98326.65;1592031;89;26778;-85
2021/09/10 00:10:15;;;;;;;;;;;;;;;15.23;57.86;98332.41;1590800;89;20261;-85
2021/09/10 00:12:43;;;;;;;;;;;;;;;15.23;57.85;98329.77;1585821;89;20222;-85
2021/09/10 00:15:12;;;;;;;;;;;;;;;15.24;57.89;98337.55;1590939;89;24866;-85
2021/09/10 00:17:41;;;;;;;;;;;;;;;15.24;57.90;98332.27;1594674;89;22072;-85
2021/09/10 00:20:07;;;;;;;;;;;;;;;15.23;57.91;98331.92;1618116;87;26482;-85
2021/09/10 00:22:34;;;;;;;;;;;;;;;15.23;57.91;98334.55;1594966;89;24523;-85
2021/09/10 00:25:00;;;;;;;;;;;;;;;15.22;57.91;98324.97;1598124;89;20556;-85
2021/09/10 00:27:26;;;;;;;;;;;;;;;15.23;57.92;98329.28;1598362;89;24829;-85
2021/09/10 00:29:54;;;;;;;;;;;;;;;15.22;57.93;98328.93;1598032;89;22012;-86
2021/09/10 00:32:20;;;;;;;;;;;;;;;15.24;57.94;98328.80;1599497;89;26021;-85
2021/09/10 00:34:49;;;;;;;;;;;;;;;15.22;57.97;98334.72;1597709;89;24578;-86
2021/09/10 00:37:15;;;;;;;;;;;;;;;15.24;57.99;98336.23;1593463;89;20246;-86
2021/09/10 00:39:41;;;;;;;;;;;;;;;15.27;57.96;98337.77;1581522;89;24611;-86
2021/09/10 00:42:07;;;;;;;;;;;;;;;15.28;57.98;98332.81;1598344;89;22055;-86
2021/09/10 00:44:36;;;;;;;;;;;;;;;15.28;57.99;98332.33;1598235;89;26675;-86
2021/09/10 00:47:02;;;;;;;;;;;;;;;15.30;57.98;98331.72;1591679;89;24588;-86
2021/09/10 00:49:31;;;;;;;;;;;;;;;15.30;57.97;98334.36;1597141;89;20218;-86
2021/09/10 00:51:59;;;;;;;;;;;;;;;15.28;57.90;98328.86;1592806;89;24768;-86
2021/09/10 00:54:25;;;;;;;;;;;;;;;15.35;57.90;98335.25;1595033;89;22197;-86
2021/09/10 00:56:51;;;;;;;;;;;;;;;15.39;57.88;98339.27;1598777;89;26007;-86
2021/09/10 00:59:17;;;;;;;;;;;;;;;15.40;57.90;98334.34;1595538;89;20275;-86
2021/09/10 01:01:43;;;;;;;;;;;;;;;15.43;57.91;98335.41;1593783;89;20274;-86
2021/09/10 01:04:09;;;;;;;;;;;;;;;15.40;57.93;98340.45;1592588;89;24814;-86
2021/09/10 01:06:35;;;;;;;;;;;;;;;15.37;57.90;98335.48;1603670;89;22077;-86
2021/09/10 01:09:03;;;;;;;;;;;;;;;15.35;57.87;98334.77;1597381;88;26073;-86
2021/09/10 01:11:31;;;;;;;;;;;;;;;15.35;57.88;98331.30;1597263;89;25385;-86
2021/09/10 01:13:58;;;;;;;;;;;;;;;15.29;57.88;98331.85;1596297;89;20237;-86
2021/09/10 01:16:24;;;;;;;;;;;;;;;15.29;57.88;98337.13;1594139;89;24739;-86
2021/09/10 01:18:50;;;;;;;;;;;;;;;15.29;57.92;98337.96;1600379;89;21950;-86
2021/09/10 01:21:16;;;;;;;;;;;;;;;15.27;57.94;98341.24;1598136;89;26005;-86
2021/09/10 01:23:42;;;;;;;;;;;;;;;15.27;57.95;98345.20;1597286;89;25268;-86
2021/09/10 01:26:08;;;;;;;;;;;;;;;15.29;57.94;98337.13;1602216;89;20190;-85
2021/09/10 01:28:34;;;;;;;;;;;;;;;15.28;57.98;98340.24;1594173;89;20281;-86
2021/09/10 01:31:00;;;;;;;;;;;;;;;15.28;57.98;98342.88;1588462;88;22169;-86
2021/09/10 01:33:26;;;;;;;;;;;;;;;15.29;57.96;98343.23;1594527;88;26686;-86
2021/09/10 01:35:52;;;;;;;;;;;;;;;15.32;57.99;98340.82;1591582;89;24461;-86
2021/09/10 01:38:21;;;;;;;;;;;;;;;15.32;57.95;98343.45;1595337;89;20516;-85
2021/09/10 01:40:48;;;;;;;;;;;;;;;15.31;57.98;98343.94;1573249;89;26338;-86
2021/09/10 01:43:15;;;;;;;;;;;;;;;15.33;57.96;98345.93;1577045;89;21960;-85
2021/09/10 01:45:43;;;;;;;;;;;;;;;15.35;57.95;98347.13;1585818;89;25900;-86
2021/09/10 01:48:09;;;;;;;;;;;;;;;15.36;57.95;98345.67;1592509;88;24414;-85
2021/09/10 01:50:35;;;;;;;;;;;;;;;15.35;57.97;98347.13;1563704;90;20240;-85
2021/09/10 01:53:05;;;;;;;;;;;;;;;15.32;57.93;98345.61;1592578;88;25551;-85
2021/09/10 01:55:32;;;;;;;;;;;;;;;15.31;57.94;98349.21;1563035;89;22018;-86
2021/09/10 01:58:01;;;;;;;;;;;;;;;15.28;57.90;98351.27;1544097;91;25992;-86
2021/09/10 02:00:27;;;;;;;;;;;;;;;15.26;57.88;98351.44;1552038;91;25486;-85
2021/09/10 02:02:53;;;;;;;;;;;;;;;15.23;57.87;98346.91;1540699;92;20551;-85
2021/09/10 02:05:21;;;;;;;;;;;;;;;15.22;57.88;98343.43;1530274;91;24581;-85
2021/09/10 02:07:47;;;;;;;;;;;;;;;15.19;57.89;98343.72;1569883;90;21978;-85
2021/09/10 02:10:13;;;;;;;;;;;;;;;15.15;57.86;98339.70;1565486;91;21223;-87
2021/09/10 02:12:42;;;;;;;;;;;;;;;15.14;57.84;98347.26;1539749;92;25354;-86
2021/09/10 02:15:09;;;;;;;;;;;;;;;15.13;57.79;98348.22;1544879;91;20315;-87
2021/09/10 02:17:40;;;;;;;;;;;;;;;15.12;57.83;98342.59;1544247;92;24818;-86
2021/09/10 02:20:07;;;;;;;;;;;;;;;15.13;57.84;98346.91;1541880;91;22089;-86
2021/09/10 02:22:34;;;;;;;;;;;;;;;15.13;57.89;98352.17;1542928;92;26098;-86
2021/09/10 02:25:00;;;;;;;;;;;;;;;15.13;57.97;98346.91;1544742;92;24390;-86
2021/09/10 02:27:26;;;;;;;;;;;;;;;15.11;58.04;98346.20;1546706;91;20248;-86
2021/09/10 02:29:52;;;;;;;;;;;;;;;15.05;58.09;98345.45;1541188;91;20735;-86
2021/09/10 02:32:18;;;;;;;;;;;;;;;14.96;58.17;98348.89;1546292;91;22051;-86
2021/09/10 02:34:45;;;;;;;;;;;;;;;14.96;58.28;98349.73;1542437;91;26076;-86
2021/09/10 02:37:12;;;;;;;;;;;;;;;14.91;58.32;98351.94;1544057;92;24911;-86
2021/09/10 02:39:38;;;;;;;;;;;;;;;14.85;58.41;98355.11;1544861;92;20257;-86
2021/09/10 02:42:04;;;;;;;;;;;;;;;14.89;58.51;98351.75;1544291;92;24724;-86
2021/09/10 02:44:30;;;;;;;;;;;;;;;14.93;58.55;98351.81;1543835;91;20236;-86
2021/09/10 02:46:56;;;;;;;;;;;;;;;14.88;58.62;98354.86;1544121;92;26010;-85
2021/09/10 02:49:24;;;;;;;;;;;;;;;14.77;58.63;98352.34;1542889;91;24412;-86
2021/09/10 02:51:51;;;;;;;;;;;;;;;14.63;58.71;98346.95;1557962;90;20279;-86
2021/09/10 02:54:17;;;;;;;;;;;;;;;14.64;58.81;98345.16;1546164;92;24792;-86
2021/09/10 02:56:46;;;;;;;;;;;;;;;14.68;58.92;98341.27;1564992;88;22802;-86
2021/09/10 02:59:12;;;;;;;;;;;;;;;14.67;58.97;98339.64;1577974;89;26015;-85
2021/09/10 03:01:44;;;;;;;;;;;;;;;14.65;59.02;98342.39;1565622;90;24572;-86
2021/09/10 03:04:06;;;;;;;;;;;;;;;14.64;59.04;98343.36;1578120;89;20326;-86
2021/09/10 03:06:32;;;;;;;;;;;;;;;14.62;59.05;98341.33;1570872;90;24980;-85
2021/09/10 03:08:59;;;;;;;;;;;;;;;14.60;59.09;98342.45;1594053;89;20838;-85
2021/09/10 03:11:25;;;;;;;;;;;;;;;14.55;59.11;98337.59;1565351;89;26002;-86
2021/09/10 03:13:52;;;;;;;;;;;;;;;14.48;59.12;98341.72;1583603;89;24437;-85
2021/09/10 03:16:25;;;;;;;;;;;;;;;14.44;59.15;98341.64;1585867;89;20510;-85
2021/09/10 03:18:51;;;;;;;;;;;;;;;14.39;59.17;98340.37;1577350;89;24629;-86
2021/09/10 03:21:17;;;;;;;;;;;;;;;14.32;59.26;98343.98;1585257;89;21987;-86
2021/09/10 03:23:45;;;;;;;;;;;;;;;14.29;59.35;98342.11;1583576;89;40266;-86
2021/09/10 03:26:11;;;;;;;;;;;;;;;14.23;59.45;98340.36;1588749;89;24455;-85
2021/09/10 03:28:38;;;;;;;;;;;;;;;14.17;59.55;98342.67;1578395;89;20903;-85
2021/09/10 03:31:04;;;;;;;;;;;;;;;14.14;59.65;98341.61;1584964;89;24833;-85
2021/09/10 03:33:31;;;;;;;;;;;;;;;14.08;59.74;98336.39;1576700;89;22013;-85
2021/09/10 03:35:57;;;;;;;;;;;;;;;14.06;59.80;98340.13;1567940;89;27374;-85
2021/09/10 03:38:24;;;;;;;;;;;;;;;14.01;59.87;98335.27;1582585;89;25515;-86
2021/09/10 03:40:50;;;;;;;;;;;;;;;14.00;59.93;98338.02;1578544;89;20233;-86
2021/09/10 03:43:16;;;;;;;;;;;;;;;13.99;59.96;98341.61;1576017;89;24685;-86
2021/09/10 03:45:43;;;;;;;;;;;;;;;13.97;60.01;98339.58;1567637;90;21956;-86
2021/09/10 03:48:09;;;;;;;;;;;;;;;13.94;60.10;98339.37;1588281;89;26059;-86
2021/09/10 03:50:37;;;;;;;;;;;;;;;13.93;60.17;98336.86;1585162;89;25364;-86
2021/09/10 03:53:10;;;;;;;;;;;;;;;13.90;60.25;98331.87;1584596;89;20387;-86
2021/09/10 03:55:36;;;;;;;;;;;;;;;13.88;60.30;98332.00;1589918;89;24981;-86
2021/09/10 03:58:03;;;;;;;;;;;;;;;13.80;60.37;98333.95;1580870;89;20485;-86
2021/09/10 04:00:29;;;;;;;;;;;;;;;13.76;60.47;98332.55;1583215;89;26925;-86
2021/09/10 04:02:55;;;;;;;;;;;;;;;13.74;60.57;98340.23;1579913;89;24403;-85
2021/09/10 04:05:21;;;;;;;;;;;;;;;13.68;60.64;98340.75;1580289;89;20265;-85
2021/09/10 04:07:47;;;;;;;;;;;;;;;13.67;60.70;98339.08;1579482;89;20280;-85
2021/09/10 04:10:14;;;;;;;;;;;;;;;13.65;60.79;98340.51;1581065;89;22019;-85
2021/09/10 04:12:40;;;;;;;;;;;;;;;13.62;60.84;98339.47;1584378;89;26012;-85
2021/09/10 04:15:06;;;;;;;;;;;;;;;13.60;60.92;98340.54;1585411;89;20328;-85
2021/09/10 04:17:32;;;;;;;;;;;;;;;13.56;61.00;98338.66;1587796;89;20325;-85
2021/09/10 04:19:58;;;;;;;;;;;;;;;13.57;61.06;98336.39;1580883;89;25572;-85
2021/09/10 04:22:24;;;;;;;;;;;;;;;13.55;61.15;98344.03;1582168;89;20380;-85
2021/09/10 04:24:50;;;;;;;;;;;;;;;13.55;61.20;98335.67;1583348;89;21041;-85
2021/09/10 04:27:22;;;;;;;;;;;;;;;13.56;61.27;98339.97;1591510;89;25375;-85
2021/09/10 04:29:48;;;;;;;;;;;;;;;13.56;61.33;98334.72;1584107;89;20374;-85
2021/09/10 04:32:14;;;;;;;;;;;;;;;13.54;61.38;98337.94;1585578;89;24857;-85
2021/09/10 04:34:40;;;;;;;;;;;;;;;13.54;61.47;98331.37;1586535;89;22969;-85
2021/09/10 04:37:08;;;;;;;;;;;;;;;13.54;61.54;98334.47;1588979;89;21144;-85
2021/09/10 04:39:34;;;;;;;;;;;;;;;13.53;61.61;98332.33;1591879;88;25324;-85
2021/09/10 04:42:00;;;;;;;;;;;;;;;13.54;61.68;98337.10;1566977;90;20515;-85
2021/09/10 04:44:26;;;;;;;;;;;;;;;13.54;61.74;98338.42;1580924;89;24803;-85
2021/09/10 04:46:52;;;;;;;;;;;;;;;13.52;61.82;98334.63;1584542;89;20384;-85
2021/09/10 04:49:23;;;;;;;;;;;;;;;13.54;61.90;98338.42;1586652;89;25992;-85
2021/09/10 04:51:46;;;;;;;;;;;;;;;13.51;61.96;98339.52;1587433;89;25151;-85
2021/09/10 04:54:15;;;;;;;;;;;;;;;13.53;61.99;98344.16;1586531;89;20252;-86
2021/09/10 04:56:41;;;;;;;;;;;;;;;13.56;62.06;98345.23;1586667;88;25736;-85
2021/09/10 04:59:11;;;;;;;;;;;;;;;13.59;62.14;98341.50;1583111;90;22040;-85
2021/09/10 05:01:38;;;;;;;;;;;;;;;13.62;62.17;98339.95;1584008;90;26828;-85
2021/09/10 05:04:04;;;;;;;;;;;;;;;13.64;62.20;98344.09;1590012;90;24435;-85
2021/09/10 05:06:30;;;;;;;;;;;;;;;13.66;62.26;98346.13;1586388;90;20174;-85
2021/09/10 05:08:57;;;;;;;;;;;;;;;13.69;62.32;98348.48;1582402;90;24711;-85
2021/09/10 05:11:23;;;;;;;;;;;;;;;13.69;62.33;98346.37;1597662;88;21975;-85
2021/09/10 05:13:49;;;;;;;;;;;;;;;13.71;62.39;98350.52;1597158;89;26028;-85
2021/09/10 05:16:15;;;;;;;;;;;;;;;13.76;62.41;98346.18;1574097;90;24381;-85
2021/09/10 05:18:42;;;;;;;;;;;;;;;13.80;62.42;98352.36;1603787;89;20326;-85
2021/09/10 05:21:08;;;;;;;;;;;;;;;13.89;62.42;98352.09;1572132;90;24707;-85
2021/09/10 05:23:34;;;;;;;;;;;;;;;13.99;62.43;98346.39;1599297;89;22049;-85
2021/09/10 05:26:00;;;;;;;;;;;;;;;14.08;62.43;98345.59;1598075;88;27498;-85
2021/09/10 05:28:26;;;;;;;;;;;;;;;14.20;62.44;98352.93;1598785;89;20515;-85
2021/09/10 05:30:52;;;;;;;;;;;;;;;14.25;62.44;98350.73;1573465;90;20440;-85
2021/09/10 05:33:18;;;;;;;;;;;;;;;14.33;62.44;98348.77;1595258;89;24826;-85
2021/09/10 05:35:45;;;;;;;;;;;;;;;14.41;62.43;98351.11;1572386;89;21976;-85
2021/09/10 05:38:14;;;;;;;;;;;;;;;14.50;62.40;98339.80;1576862;89;26728;-85
2021/09/10 05:40:40;;;;;;;;;;;;;;;14.59;62.40;98344.25;1572035;90;24626;-85
2021/09/10 05:43:06;;;;;;;;;;;;;;;14.67;62.37;98344.06;1575670;90;20313;-85
2021/09/10 05:45:32;;;;;;;;;;;;;;;14.72;62.37;98344.02;1597292;89;24761;-85
2021/09/10 05:47:58;;;;;;;;;;;;;;;14.79;62.39;98343.80;1571810;90;21783;-85
2021/09/10 05:50:24;;;;;;;;;;;;;;;14.85;62.38;98343.74;1596179;89;26009;-85
2021/09/10 05:52:50;;;;;;;;;;;;;;;14.90;62.37;98346.31;1573304;89;24421;-85
2021/09/10 05:55:16;;;;;;;;;;;;;;;14.95;62.36;98354.64;1596134;89;20253;-85
2021/09/10 05:57:42;;;;;;;;;;;;;;;15.01;62.33;98359.38;1572668;89;24762;-85
2021/09/10 06:00:08;;;;;;;;;;;;;;;15.08;62.34;98357.03;1601764;88;20208;-85
2021/09/10 06:02:34;;;;;;;;;;;;;;;15.13;62.31;98358.77;1575279;90;26082;-85
2021/09/10 06:05:00;;;;;;;;;;;;;;;15.19;62.32;98363.49;1585625;89;24494;-85
2021/09/10 06:07:26;;;;;;;;;;;;;;;15.27;62.37;98360.18;1576424;90;20224;-85
2021/09/10 06:09:52;;;;;;;;;;;;;;;15.36;62.35;98365.93;1601922;89;25524;-85
2021/09/10 06:12:18;;;;;;;;;;;;;;;15.40;62.31;98364.19;1575590;90;20250;-84
2021/09/10 06:14:44;;;;;;;;;;;;;;;15.45;62.28;98365.92;1602508;88;25997;-85
2021/09/10 06:17:10;;;;;;;;;;;;;;;15.52;62.28;98362.77;1575472;90;24430;-85
2021/09/10 06:19:36;;;;;;;;;;;;;;;15.56;62.29;98367.61;1602194;89;20417;-85
2021/09/10 06:22:02;;;;;;;;;;;;;;;15.60;62.25;98361.08;1575247;90;24784;-85
2021/09/10 06:24:28;;;;;;;;;;;;;;;15.69;62.21;98366.85;1601994;89;22061;-85
2021/09/10 06:26:54;;;;;;;;;;;;;;;15.77;62.21;98364.81;1601496;88;26110;-85
2021/09/10 06:29:27;;;;;;;;;;;;;;;15.84;62.27;98367.23;1575220;91;25079;-85
2021/09/10 06:31:52;;;;;;;;;;;;;;;15.93;62.22;98362.94;1601680;89;20337;-85
2021/09/10 06:34:21;;;;;;;;;;;;;;;16.01;62.15;98367.00;1569378;90;20317;-85
2021/09/10 06:36:48;;;;;;;;;;;;;;;16.08;62.15;98369.42;1584719;89;22069;-85
2021/09/10 06:39:15;;;;;;;;;;;;;;;16.13;62.11;98369.82;1582846;89;26053;-85
2021/09/10 06:41:41;;;;;;;;;;;;;;;16.21;62.16;98362.83;1603956;89;24532;-85
2021/09/10 06:44:07;;;;;;;;;;;;;;;16.30;62.17;98370.39;1575781;89;20218;-85
2021/09/10 06:46:33;;;;;;;;;;;;;;;16.37;62.21;98370.14;1610608;89;20701;-85
2021/09/10 06:49:05;;;;;;;;;;;;;;;16.47;62.20;98373.60;1591573;90;21783;-85
2021/09/10 06:51:33;;;;;;;;;;;;;;;16.58;62.24;98369.42;1611551;88;21098;-85
2021/09/10 06:53:59;;;;;;;;;;;;;;;16.66;62.23;98376.17;1589792;90;24711;-85
2021/09/10 06:56:25;;;;;;;;;;;;;;;16.75;62.17;98372.32;1591430;90;20374;-85
2021/09/10 06:58:51;;;;;;;;;;;;;;;16.85;62.15;98371.77;1586942;89;24772;-86
2021/09/10 07:01:18;;;;;;;;;;;;;;;16.95;62.17;98377.34;1586898;89;22013;-85
2021/09/10 07:03:46;;;;;;;;;;;;;;;17.05;62.12;98373.31;1587602;89;26697;-85
2021/09/10 07:06:12;;;;;;;;;;;;;;;17.13;62.13;98373.38;1582552;89;24719;-85
2021/09/10 07:08:39;;;;;;;;;;;;;;;17.20;62.07;98377.58;1587628;89;20304;-85
2021/09/10 07:11:05;;;;;;;;;;;;;;;17.27;62.02;98381.30;1586487;89;24813;-85
2021/09/10 07:13:31;;;;;;;;;;;;;;;17.36;61.96;98383.03;1587493;89;21829;-85
2021/09/10 07:15:57;;;;;;;;;;;;;;;17.47;61.81;98378.84;1588105;89;26064;-82
2021/09/10 07:18:23;;;;;;;;;;;;;;;17.60;61.74;98374.04;1589280;89;24539;-86
2021/09/10 07:20:49;;;;;;;;;;;;;;;17.73;61.64;98381.08;1589996;89;20292;-85
2021/09/10 07:23:16;;;;;;;;;;;;;;;17.85;61.50;98379.02;1586488;89;25490;-85
2021/09/10 07:25:42;;;;;;;;;;;;;;;17.97;61.37;98375.98;1585351;89;21947;-85
2021/09/10 07:28:08;;;;;;;;;;;;;;;18.06;61.31;98380.83;1581057;89;26098;-85
2021/09/10 07:30:34;;;;;;;;;;;;;;;18.17;61.11;98378.41;1588797;89;25567;-85
2021/09/10 07:33:01;;;;;;;;;;;;;;;18.26;60.91;98376.17;1588180;89;20240;-85
2021/09/10 07:35:27;;;;;;;;;;;;;;;18.41;60.84;98378.56;1597128;88;24832;-85
2021/09/10 07:38:02;;;;;;;;;;;;;;;18.49;60.72;98381.27;1590048;89;22880;-85
2021/09/10 07:40:28;;;;;;;;;;;;;;;18.55;60.60;98379.31;1566394;91;26036;-85
2021/09/10 07:42:54;;;;;;;;;;;;;;;18.63;60.45;98384.67;1595506;89;24397;-85
2021/09/10 07:45:20;;;;;;;;;;;;;;;18.69;60.22;98386.69;1570892;90;20464;-85
2021/09/10 07:47:46;;;;;;;;;;;;;;;18.75;60.04;98382.57;1567494;89;24822;-85
2021/09/10 07:50:12;;;;;;;;;;;;;;;18.84;59.84;98388.23;1582098;89;20249;-85
2021/09/10 07:52:38;;;;;;;;;;;;;;;18.95;59.57;98385.78;1586762;89;26066;-85
2021/09/10 07:55:05;;;;;;;;;;;;;;;19.08;59.37;98386.16;1589380;89;24428;-85
2021/09/10 07:57:31;;;;;;;;;;;;;;;19.18;59.17;98389.01;1587168;89;20376;-85
2021/09/10 07:59:57;;;;;;;;;;;;;;;19.29;58.88;98390.52;1588687;89;20297;-85
2021/09/10 08:02:26;;;;;;;;;;;;;;;19.38;58.67;98393.52;1584713;89;22003;-85
2021/09/10 08:04:52;;;;;;;;;;;;;;;19.45;58.35;98389.25;1582434;89;26023;-86
2021/09/10 08:07:18;;;;;;;;;;;;;;;19.55;58.18;98391.74;1582110;89;24396;-86
2021/09/10 08:09:44;;;;;;;;;;;;;;;19.63;58.03;98387.78;1595192;89;20261;-85
2021/09/10 08:12:10;;;;;;;;;;;;;;;19.70;57.84;98387.92;1594338;89;24757;-85
2021/09/10 08:14:40;;;;;;;;;;;;;;;19.82;57.51;98395.90;1587794;89;22159;-85
2021/09/10 08:17:09;;;;;;;;;;;;;;;19.93;57.26;98391.58;1584353;89;26189;-85
2021/09/10 08:19:35;;;;;;;;;;;;;;;19.99;57.10;98392.25;1583189;89;24509;-86
2021/09/10 08:22:03;;;;;;;;;;;;;;;20.03;56.99;98389.08;1568278;89;20221;-85
2021/09/10 08:24:29;;;;;;;;;;;;;;;20.09;56.88;98388.91;1582410;89;24842;-85
2021/09/10 08:26:55;;;;;;;;;;;;;;;20.17;56.70;98383.59;1580087;89;22162;-85
2021/09/10 08:29:21;;;;;;;;;;;;;;;20.25;56.58;98380.91;1589108;89;25980;-85
2021/09/10 08:31:56;;;;;;;;;;;;;;;20.30;56.30;98386.55;1589755;89;24542;-85
2021/09/10 08:34:22;;;;;;;;;;;;;;;20.39;55.87;98382.09;1579827;89;20227;-85
2021/09/10 08:36:48;;;;;;;;;;;;;;;20.45;55.65;98386.23;1575231;88;24834;-85
2021/09/10 08:39:14;;;;;;;;;;;;;;;20.52;55.50;98385.52;1568892;90;22259;-85
2021/09/10 08:41:42;;;;;;;;;;;;;;;20.59;55.30;98383.84;1596913;88;25972;-85
2021/09/10 08:44:08;;;;;;;;;;;;;;;20.65;55.14;98387.98;1584009;89;24662;-85
2021/09/10 08:46:37;;;;;;;;;;;;;;;20.72;54.98;98389.46;1584617;89;20203;-85
2021/09/10 08:49:04;;;;;;;;;;;;;;;20.78;54.78;98388.77;1590279;89;24855;-85
2021/09/10 08:51:35;;;;;;;;;;;;;;;20.86;54.54;98399.36;1579753;89;21962;-85
2021/09/10 08:54:01;;;;;;;;;;;;;;;20.94;54.32;98394.02;1591139;89;26134;-85
2021/09/10 08:56:27;;;;;;;;;;;;;;;21.02;54.13;98391.80;1581522;89;24344;-85
2021/09/10 08:59:06;;;;;;;;;;;;;;;21.07;53.92;98391.61;1587725;89;20646;-85
2021/09/10 09:01:32;;;;;;;;;;;;;;;21.12;53.63;98396.41;1602453;87;24728;-86
2021/09/10 09:04:08;;;;;;;;;;;;;;;21.20;53.53;98392.41;1585663;89;21963;-86
2021/09/10 09:06:34;;;;;;;;;;;;;;;21.22;53.23;98393.87;1583961;89;26098;-85
2021/09/10 09:09:01;;;;;;;;;;;;;;;21.30;53.14;98397.01;1583939;89;24479;-85
2021/09/10 09:11:28;;;;;;;;;;;;;;;21.32;52.86;98387.52;1582480;90;20238;-85
2021/09/10 09:14:05;;;;;;;;;;;;;;;21.32;52.66;98391.02;1596381;89;23011;-85
2021/09/10 09:16:37;;;;;;;;;;;;;;;21.33;52.58;98386.52;1588083;89;22099;-85
2021/09/10 09:19:01;;;;;;;;;;;;;;;21.37;52.50;98387.33;1565189;89;26071;-85
2021/09/10 09:21:29;;;;;;;;;;;;;;;21.47;52.27;98386.59;1587626;89;24461;-85
2021/09/10 09:24:15;;;;;;;;;;;;;;;21.52;52.01;98388.71;1592100;89;20268;-85
2021/09/10 09:26:45;;;;;;;;;;;;;;;21.56;51.77;98384.68;1565400;90;24814;-86
2021/09/10 09:29:13;;;;;;;;;;;;;;;21.64;51.61;98375.31;1595047;88;22880;-86
2021/09/10 09:31:39;;;;;;;;;;;;;;;21.73;51.46;98374.73;1566685;90;26039;-85
2021/09/10 09:34:11;;;;;;;;;;;;;;;21.73;51.26;98379.56;1593674;89;24540;-85
2021/09/10 09:36:57;;;;;;;;;;;;;;;21.76;51.21;98376.55;1567774;91;20279;-86
2021/09/10 09:39:23;;;;;;;;;;;;;;;21.79;51.08;98382.01;1592605;89;25392;-86
2021/09/10 09:41:51;;;;;;;;;;;;;;;21.81;50.87;98378.17;1565201;90;21941;-86
2021/09/10 09:44:17;;;;;;;;;;;;;;;21.85;50.76;98375.97;1592104;89;26861;-85
2021/09/10 09:46:46;;;;;;;;;;;;;;;21.91;50.75;98379.25;1568200;90;24506;-85
2021/09/10 09:49:14;;;;;;;;;;;;;;;22.00;50.80;98376.35;1595310;87;20237;-86
2021/09/10 09:51:58;;;;;;;;;;;;;;;22.11;50.95;98380.42;1563401;90;24815;-86
2021/09/10 09:54:24;;;;;;;;;;;;;;;22.13;50.81;98376.25;1586763;89;22762;-85
2021/09/10 09:56:50;;;;;;;;;;;;;;;22.19;50.67;98372.36;1562516;90;20927;-86
2021/09/10 09:59:17;;;;;;;;;;;;;;;22.27;50.49;98370.09;1601156;88;24458;-86
2021/09/10 10:01:43;;;;;;;;;;;;;;;22.27;50.25;98364.76;1605697;89;20445;-86
2021/09/10 10:04:09;;;;;;;;;;;;;;;22.33;50.09;98369.37;1579375;89;24838;-86
2021/09/10 10:06:36;;;;;;;;;;;;;;;22.39;49.94;98367.30;1605720;88;20269;-85
2021/09/10 10:09:04;;;;;;;;;;;;;;;22.43;49.75;98378.75;1578842;91;26001;-85
2021/09/10 10:11:50;;;;;;;;;;;;;;;22.50;49.75;98373.02;1604868;89;24439;-85
2021/09/10 10:14:17;;;;;;;;;;;;;;;22.57;49.51;98373.11;1578417;90;20235;-85
2021/09/10 10:16:44;;;;;;;;;;;;;;;22.63;49.27;98371.55;1587476;88;24798;-85
2021/09/10 10:19:24;;;;;;;;;;;;;;;22.67;49.09;98376.32;1579230;91;21986;-86
2021/09/10 10:22:01;;;;;;;;;;;;;;;22.70;48.88;98381.27;1605645;89;27015;-85
2021/09/10 10:24:46;;;;;;;;;;;;;;;22.75;48.74;98376.74;1579272;90;24560;-85
2021/09/10 10:27:35;;;;;;;;;;;;;;;22.79;48.74;98370.87;1605830;89;20253;-85
2021/09/10 10:30:19;;;;;;;;;;;;;;;22.87;48.65;98373.42;1578801;89;24774;-85
2021/09/10 10:32:50;;;;;;;;;;;;;;;22.89;48.38;98374.58;1576707;89;22044;-85
2021/09/10 10:35:18;;;;;;;;;;;;;;;22.90;48.23;98377.07;1580561;90;27599;-86
2021/09/10 10:37:51;;;;;;;;;;;;;;;22.91;48.05;98369.36;1605454;88;24585;-85
2021/09/10 10:40:28;;;;;;;;;;;;;;;22.87;47.75;98362.75;1578532;91;21009;-86
2021/09/10 10:42:55;;;;;;;;;;;;;;;22.96;47.70;98365.33;1605630;89;24780;-86
2021/09/10 10:45:41;;;;;;;;;;;;;;;23.01;47.57;98365.59;1579068;90;22004;-86
2021/09/10 10:48:26;;;;;;;;;;;;;;;23.06;47.44;98360.01;1605628;88;26061;-85
2021/09/10 10:50:52;;;;;;;;;;;;;;;23.12;47.23;98363.77;1578879;90;25117;-85
2021/09/10 10:53:19;;;;;;;;;;;;;;;23.19;47.07;98355.30;1605712;88;20242;-85
2021/09/10 10:55:45;;;;;;;;;;;;;;;23.26;46.92;98352.20;1578899;90;24628;-85
2021/09/10 10:58:29;;;;;;;;;;;;;;;23.33;46.80;98355.78;1605959;89;22970;-85
2021/09/10 11:01:02;;;;;;;;;;;;;;;23.35;46.55;98349.22;1535293;92;26168;-86
2021/09/10 11:03:36;;;;;;;;;;;;;;;23.38;46.36;98356.55;1565709;90;25317;-86
2021/09/10 11:06:20;;;;;;;;;;;;;;;23.47;46.45;98360.26;1583616;89;20241;-86
2021/09/10 11:08:47;;;;;;;;;;;;;;;23.48;46.25;98353.91;1564833;90;24797;-86
2021/09/10 11:11:13;;;;;;;;;;;;;;;23.53;46.05;98348.81;1565746;90;21994;-86
2021/09/10 11:13:43;;;;;;;;;;;;;;;23.55;45.84;98345.45;1568964;90;25991;-86
2021/09/10 11:16:10;;;;;;;;;;;;;;;23.61;45.77;98346.53;1567129;90;24582;-86
2021/09/10 11:18:38;;;;;;;;;;;;;;;23.65;45.55;98347.28;1567201;90;20221;-85
2021/09/10 11:21:07;;;;;;;;;;;;;;;23.65;45.31;98335.27;1562850;90;24766;-86
2021/09/10 11:23:36;;;;;;;;;;;;;;;23.71;45.18;98338.50;1564491;90;22030;-86
2021/09/10 11:26:09;;;;;;;;;;;;;;;23.80;45.17;98337.02;1567446;90;26886;-86
2021/09/10 11:28:36;;;;;;;;;;;;;;;23.85;45.09;98339.42;1565661;90;24529;-86
2021/09/10 11:31:04;;;;;;;;;;;;;;;23.88;44.87;98332.87;1565703;90;20467;-86
2021/09/10 11:33:51;;;;;;;;;;;;;;;23.96;44.73;98331.38;1563881;90;24769;-86
2021/09/10 11:36:24;;;;;;;;;;;;;;;24.00;44.44;98324.65;1512459;93;22150;-85
2021/09/10 11:38:50;;;;;;;;;;;;;;;24.06;44.25;98315.31;1552843;90;26094;-85
2021/09/10 11:41:16;;;;;;;;;;;;;;;24.16;44.16;98317.66;1567225;90;25131;-85
2021/09/10 11:43:42;;;;;;;;;;;;;;;24.16;43.86;98309.64;1564850;90;20828;-86
2021/09/10 11:46:12;;;;;;;;;;;;;;;24.11;43.58;98308.86;1565408;90;24782;-85
2021/09/10 11:48:42;;;;;;;;;;;;;;;24.17;43.62;98304.10;1567129;90;22772;-85
2021/09/10 11:51:09;;;;;;;;;;;;;;;24.21;43.47;98307.73;1566226;90;26394;-85
2021/09/10 11:53:37;;;;;;;;;;;;;;;24.24;43.37;98298.80;1565466;90;24549;-85
2021/09/10 11:56:07;;;;;;;;;;;;;;;24.33;43.41;98307.51;1565009;90;20279;-85
2021/09/10 11:58:41;;;;;;;;;;;;;;;24.39;43.37;98302.17;1565635;89;24775;-86
2021/09/10 12:01:11;;;;;;;;;;;;;;;24.37;43.12;98304.23;1596795;89;21892;-86
2021/09/10 12:03:46;;;;;;;;;;;;;;;24.43;43.13;98295.93;1585240;89;26110;-86
2021/09/10 12:06:15;;;;;;;;;;;;;;;24.50;43.06;98301.61;1602814;89;24737;-85
2021/09/10 12:08:42;;;;;;;;;;;;;;;24.59;43.09;98295.59;1592408;89;20232;-85
2021/09/10 12:11:10;;;;;;;;;;;;;;;24.66;42.99;98292.95;1591957;89;24484;-85
2021/09/10 12:13:36;;;;;;;;;;;;;;;24.72;42.85;98288.94;1575293;89;22505;-85
2021/09/10 12:16:04;;;;;;;;;;;;;;;24.75;42.54;98289.89;1601432;89;21028;-85
2021/09/10 12:18:30;;;;;;;;;;;;;;;24.81;42.36;98292.28;1589826;89;24424;-85
2021/09/10 12:20:56;;;;;;;;;;;;;;;24.87;42.44;98293.65;1592533;89;20367;-85
2021/09/10 12:23:22;;;;;;;;;;;;;;;24.90;42.37;98289.25;1590123;89;24713;-86
2021/09/10 12:25:58;;;;;;;;;;;;;;;24.85;42.06;98286.83;1585164;89;22026;-86
2021/09/10 12:28:30;;;;;;;;;;;;;;;24.87;42.08;98288.30;1572713;89;25854;-85
2021/09/10 12:31:01;;;;;;;;;;;;;;;24.93;42.10;98290.68;1582548;89;24471;-86
2021/09/10 12:33:30;;;;;;;;;;;;;;;24.97;41.97;98287.94;1595578;89;20627;-85
2021/09/10 12:35:58;;;;;;;;;;;;;;;24.97;41.84;98281.23;1592535;89;24782;-85
2021/09/10 12:38:29;;;;;;;;;;;;;;;24.97;41.72;98283.41;1593813;88;21462;-86
2021/09/10 12:40:55;;;;;;;;;;;;;;;24.98;41.50;98280.22;1594258;89;26840;-85
2021/09/10 12:43:23;;;;;;;;;;;;;;;25.00;41.34;98280.31;1595488;89;24392;-85
2021/09/10 12:45:49;;;;;;;;;;;;;;;24.95;41.13;98273.40;1570963;90;20317;-85
2021/09/10 12:48:16;;;;;;;;;;;;;;;24.85;40.88;98271.59;1588338;89;24803;-85
2021/09/10 12:50:42;;;;;;;;;;;;;;;24.86;40.80;98277.78;1565275;91;22074;-85